createdAt,value
2022-11-18T00:01:25.446Z,4.10
2022-11-18T00:03:54.158Z,4.50
2022-11-18T00:06:24.612Z,2.83
2022-11-18T00:08:52.987Z,6.07
2022-11-18T00:11:36.204Z,3.13
2022-11-18T00:14:20.221Z,4.40
2022-11-18T00:16:49.291Z,4.82
2022-11-18T00:19:18.148Z,4.72
2022-11-18T00:21:48.278Z,6.60
2022-11-18T00:24:16.792Z,6.22
2022-11-18T00:26:45.258Z,6.93
2022-11-18T00:29:14.030Z,6.82
2022-11-18T00:31:42.469Z,3.33
2022-11-18T00:34:13.090Z,5.10
2022-11-18T00:36:41.518Z,5.63
2022-11-18T00:39:12.408Z,5.40
2022-11-18T00:41:58.645Z,5.13
2022-11-18T00:44:27.077Z,3.97
2022-11-18T00:46:55.715Z,3.85
2022-11-18T00:49:24.409Z,3.83
2022-11-18T00:51:52.836Z,5.85
2022-11-18T00:54:22.765Z,4.20
2022-11-18T00:56:51.195Z,6.90
2022-11-18T00:59:19.978Z,3.97
2022-11-18T01:01:49.162Z,3.78
2022-11-18T01:04:17.862Z,3.60
2022-11-18T01:06:46.312Z,3.15
2022-11-18T01:09:14.940Z,3.58
2022-11-18T01:12:02.315Z,4.07
2022-11-18T01:14:30.880Z,4.38
2022-11-18T01:16:59.626Z,5.97
2022-11-18T01:19:28.331Z,4.30
2022-11-18T01:22:02.909Z,5.57
2022-11-18T01:24:31.508Z,5.63
2022-11-18T01:27:01.300Z,4.32
2022-11-18T01:29:29.714Z,6.57
2022-11-18T01:34:46.520Z,8.00
2022-11-18T01:37:14.978Z,3.25
2022-11-18T01:39:43.351Z,6.10
2022-11-18T01:42:17.190Z,4.93
2022-11-18T01:45:09.552Z,4.65
2022-11-18T01:47:41.711Z,5.82
2022-11-18T01:50:10.916Z,6.90
2022-11-18T01:52:39.648Z,5.78
2022-11-18T01:55:10.017Z,2.75
2022-11-18T01:57:39.816Z,8.68
2022-11-18T02:00:09.145Z,3.33
2022-11-18T02:02:38.598Z,3.80
2022-11-18T02:05:07.992Z,2.67
2022-11-18T02:07:37.691Z,4.22
2022-11-18T02:10:08.687Z,9.25
2022-11-18T02:12:38.140Z,5.35
2022-11-18T02:15:08.739Z,3.42
2022-11-18T02:17:41.606Z,7.07
2022-11-18T02:20:33.884Z,5.93
2022-11-18T02:23:23.537Z,6.50
2022-11-18T02:25:59.271Z,3.17
2022-11-18T02:28:37.967Z,3.05
2022-11-18T02:31:10.284Z,4.65
2022-11-18T02:33:40.532Z,3.53
2022-11-18T02:36:11.929Z,8.23
2022-11-18T02:38:45.224Z,5.68
2022-11-18T02:41:16.364Z,5.07
2022-11-18T02:43:47.192Z,4.07
2022-11-18T02:46:17.989Z,4.53
2022-11-18T02:48:48.991Z,7.78
2022-11-18T02:51:19.468Z,3.25
2022-11-18T02:53:48.563Z,5.30
2022-11-18T02:56:17.859Z,3.75
2022-11-18T02:58:46.329Z,5.82
2022-11-18T03:01:20.175Z,4.65
2022-11-18T03:03:48.710Z,5.78
2022-11-18T03:06:27.371Z,4.05
2022-11-18T03:08:58.644Z,5.88
2022-11-18T03:11:29.295Z,5.68
2022-11-18T03:14:07.318Z,4.88
2022-11-18T03:16:41.351Z,6.20
2022-11-18T03:19:11.815Z,5.43
2022-11-18T03:21:42.635Z,3.28
2022-11-18T03:24:13.401Z,5.13
2022-11-18T03:26:43.073Z,3.08
2022-11-18T03:29:15.470Z,3.10
2022-11-18T03:31:47.582Z,3.42
2022-11-18T03:34:19.321Z,5.07
2022-11-18T03:36:51.971Z,6.47
2022-11-18T03:39:21.826Z,4.30
2022-11-18T03:41:52.197Z,6.13
2022-11-18T03:44:22.296Z,5.60
2022-11-18T03:46:53.878Z,7.43
2022-11-18T03:49:26.287Z,9.30
2022-11-18T03:51:57.905Z,6.25
2022-11-18T03:54:27.725Z,4.45
2022-11-18T03:56:58.862Z,5.97
2022-11-18T03:59:29.550Z,4.55
2022-11-18T04:02:00.524Z,4.82
2022-11-18T04:04:29.653Z,6.22
2022-11-18T04:07:02.666Z,5.22
2022-11-18T04:09:32.843Z,7.35
2022-11-18T04:12:04.883Z,4.95
2022-11-18T04:14:34.300Z,6.90
2022-11-18T04:17:06.982Z,4.88
2022-11-18T04:19:35.421Z,5.78
2022-11-18T04:22:04.005Z,4.97
2022-11-18T04:24:32.467Z,5.82
2022-11-18T04:27:02.551Z,8.88
2022-11-18T04:29:31.083Z,8.60
2022-11-18T04:31:59.488Z,5.47
2022-11-18T04:34:29.370Z,2.95
2022-11-18T04:36:57.804Z,7.10
2022-11-18T04:39:26.229Z,6.20
2022-11-18T04:41:57.682Z,5.22
2022-11-18T04:44:26.918Z,5.78
2022-11-18T04:46:55.421Z,5.00
2022-11-18T04:49:23.848Z,4.93
2022-11-18T04:51:54.062Z,3.83
2022-11-18T04:54:22.984Z,5.55
2022-11-18T04:56:51.540Z,6.63
2022-11-18T04:59:21.697Z,4.82
2022-11-18T05:01:50.506Z,4.05
2022-11-18T05:04:19.861Z,5.20
2022-11-18T05:06:48.652Z,4.30
2022-11-18T05:09:18.944Z,5.57
2022-11-18T05:12:05.119Z,5.47
2022-11-18T05:14:33.595Z,5.22
2022-11-18T05:17:02.872Z,8.02
2022-11-18T05:19:31.295Z,5.30
2022-11-18T05:21:59.788Z,9.63
2022-11-18T05:24:29.572Z,4.57
2022-11-18T05:26:57.935Z,6.00
2022-11-18T05:29:26.392Z,5.35
2022-11-18T05:31:54.774Z,7.53
2022-11-18T05:34:23.241Z,5.13
2022-11-18T05:36:51.725Z,8.93
2022-11-18T05:39:20.841Z,6.88
2022-11-18T05:42:08.637Z,5.38
2022-11-18T05:44:37.065Z,9.10
2022-11-18T05:47:05.462Z,7.60
2022-11-18T05:49:33.878Z,5.75
2022-11-18T05:52:02.541Z,4.93
2022-11-18T05:54:31.182Z,5.18
2022-11-18T05:57:01.010Z,6.93
2022-11-18T05:59:29.907Z,7.22
2022-11-18T06:02:02.007Z,6.55
2022-11-18T06:04:32.968Z,8.18
2022-11-18T06:07:02.380Z,7.63
2022-11-18T06:09:33.175Z,6.15
2022-11-18T06:12:04.080Z,7.47
2022-11-18T06:14:34.106Z,9.50
2022-11-18T06:17:04.801Z,6.85
2022-11-18T06:19:34.069Z,7.63
2022-11-18T06:22:02.601Z,5.20
2022-11-18T06:24:31.068Z,6.47
2022-11-18T06:27:00.746Z,8.10
2022-11-18T06:29:31.004Z,9.05
2022-11-18T06:31:59.556Z,5.55
2022-11-18T06:34:27.972Z,6.47
2022-11-18T06:36:56.366Z,8.20
2022-11-18T06:39:24.807Z,6.20
2022-11-18T06:41:54.618Z,11.00
2022-11-18T06:44:22.050Z,5.95
2022-11-18T06:46:58.348Z,6.28
2022-11-18T06:49:27.723Z,5.45
2022-11-18T06:51:56.140Z,6.30
2022-11-18T06:54:24.585Z,9.02
2022-11-18T06:56:52.985Z,6.50
2022-11-18T06:59:24.465Z,10.23
2022-11-18T07:01:54.238Z,7.95
2022-11-18T07:04:22.688Z,6.45
2022-11-18T07:06:51.247Z,6.60
2022-11-18T07:09:19.978Z,10.52
2022-11-18T07:11:48.647Z,5.90
2022-11-18T07:14:17.077Z,6.90
2022-11-18T07:16:45.461Z,7.82
2022-11-18T07:19:15.998Z,7.95
2022-11-18T07:21:44.681Z,7.70
2022-11-18T07:24:14.493Z,6.10
2022-11-18T07:26:42.935Z,7.68
2022-11-18T07:29:11.870Z,6.82
2022-11-18T07:31:40.884Z,8.18
2022-11-18T07:34:09.509Z,10.48
2022-11-18T07:36:39.276Z,8.25
2022-11-18T07:39:08.414Z,8.48
2022-11-18T07:41:37.288Z,8.13
2022-11-18T07:44:07.418Z,8.00
2022-11-18T07:46:36.505Z,9.35
2022-11-18T07:49:05.930Z,7.50
2022-11-18T07:51:35.589Z,5.00
2022-11-18T07:54:07.550Z,10.65
2022-11-18T07:56:35.953Z,7.68
2022-11-18T07:59:04.638Z,7.93
2022-11-18T08:01:33.378Z,6.45
2022-11-18T08:04:07.034Z,9.05
2022-11-18T08:06:35.842Z,6.78
2022-11-18T08:09:06.587Z,5.97
2022-11-18T08:11:35.182Z,5.30
2022-11-18T08:14:03.721Z,4.82
2022-11-18T08:16:32.352Z,10.63
2022-11-18T08:19:01.365Z,7.47
2022-11-18T08:21:30.341Z,8.00
2022-11-18T08:23:59.501Z,7.03
2022-11-18T08:26:29.745Z,5.68
2022-11-18T08:28:59.409Z,6.97
2022-11-18T08:31:30.532Z,8.52
2022-11-18T08:34:00.085Z,5.88
2022-11-18T08:36:29.711Z,6.20
2022-11-18T08:38:58.403Z,8.50
2022-11-18T08:41:30.449Z,6.93
2022-11-18T08:43:59.276Z,7.38
2022-11-18T08:46:27.942Z,7.55
2022-11-18T08:48:56.900Z,5.95
2022-11-18T08:51:25.615Z,8.40
2022-11-18T08:53:54.244Z,10.40
2022-11-18T08:56:23.862Z,5.13
2022-11-18T08:58:54.332Z,5.50
2022-11-18T09:01:23.130Z,9.65
2022-11-18T09:03:52.034Z,6.57
2022-11-18T09:06:21.455Z,8.05
2022-11-18T09:08:50.068Z,8.75
2022-11-18T09:11:19.549Z,8.65
2022-11-18T09:14:25.861Z,5.78
2022-11-18T09:16:38.250Z,6.88
2022-11-18T09:19:39.697Z,7.65
2022-11-18T09:21:55.648Z,9.20
2022-11-18T09:24:24.298Z,8.25
2022-11-18T09:26:53.872Z,9.80
2022-11-18T09:29:26.198Z,7.90
2022-11-18T09:31:56.526Z,7.43
2022-11-18T09:34:25.686Z,6.70
2022-11-18T09:36:56.713Z,8.48
2022-11-18T09:39:26.000Z,8.85
2022-11-18T09:42:01.463Z,10.32
2022-11-18T09:44:35.712Z,7.15
2022-11-18T09:47:09.683Z,10.98
2022-11-18T09:49:40.056Z,6.72
2022-11-18T09:52:12.935Z,6.07
2022-11-18T09:54:41.924Z,8.20
2022-11-18T09:57:13.904Z,12.18
2022-11-18T09:59:42.617Z,7.85
2022-11-18T10:02:24.558Z,9.38
2022-11-18T10:04:53.664Z,7.50
2022-11-18T10:07:26.693Z,7.85
2022-11-18T10:09:56.297Z,11.90
2022-11-18T10:12:27.129Z,8.93
2022-11-18T10:15:04.742Z,4.78
2022-11-18T10:17:44.381Z,5.35
2022-11-18T10:20:21.980Z,5.45
2022-11-18T10:22:52.723Z,10.13
2022-11-18T10:25:21.243Z,6.57
2022-11-18T10:27:50.358Z,6.68
2022-11-18T10:30:20.207Z,7.85
2022-11-18T10:32:57.084Z,10.52
2022-11-18T10:35:31.366Z,10.00
2022-11-18T10:38:08.519Z,7.90
2022-11-18T10:40:40.011Z,9.43
2022-11-18T10:43:08.459Z,7.22
2022-11-18T10:45:37.043Z,9.10
2022-11-18T10:48:18.979Z,9.73
2022-11-18T10:50:53.768Z,5.50
2022-11-18T10:53:32.243Z,8.27
2022-11-18T10:56:01.387Z,5.88
2022-11-18T10:58:31.039Z,8.65
2022-11-18T11:01:06.837Z,5.68
2022-11-18T11:03:37.957Z,7.65
2022-11-18T11:06:16.783Z,5.43
2022-11-18T11:08:51.890Z,6.40
2022-11-18T11:11:26.597Z,8.48
2022-11-18T11:13:56.832Z,6.03
2022-11-18T11:16:26.584Z,7.57
2022-11-18T11:18:58.431Z,6.75
2022-11-18T11:21:28.464Z,9.18
2022-11-18T11:23:56.902Z,10.50
2022-11-18T11:29:25.552Z,9.27
2022-11-18T11:32:02.626Z,11.20
2022-11-18T11:34:37.659Z,5.38
2022-11-18T11:37:10.209Z,7.88
2022-11-18T11:39:56.471Z,10.60
2022-11-18T11:42:34.013Z,7.57
2022-11-18T11:45:06.904Z,8.98
2022-11-18T11:47:51.096Z,6.72
2022-11-18T11:50:25.160Z,11.93
2022-11-18T11:53:17.839Z,10.20
2022-11-18T11:55:56.697Z,7.22
2022-11-18T11:58:34.029Z,5.53
2022-11-18T12:01:05.127Z,10.40
2022-11-18T12:03:48.782Z,8.35
2022-11-18T12:06:21.783Z,5.57
2022-11-18T12:08:52.148Z,6.00
2022-11-18T12:11:23.028Z,7.13
2022-11-18T12:13:55.903Z,8.65
2022-11-18T12:16:30.407Z,10.07
2022-11-18T12:19:00.188Z,6.47
2022-11-18T12:21:47.564Z,8.00
2022-11-18T12:24:36.466Z,10.55
2022-11-18T12:27:06.641Z,7.60
2022-11-18T12:29:41.750Z,9.20
2022-11-18T12:32:31.342Z,5.95
2022-11-18T12:35:01.964Z,6.15
2022-11-18T12:37:40.982Z,4.50
2022-11-18T12:40:12.316Z,6.20
2022-11-18T12:43:00.031Z,8.35
2022-11-18T12:45:58.567Z,6.53
2022-11-18T12:48:34.928Z,10.93
2022-11-18T12:51:04.681Z,7.43
2022-11-18T12:53:35.507Z,7.35
2022-11-18T12:56:13.413Z,8.23
2022-11-18T12:58:46.626Z,6.50
2022-11-18T13:01:15.943Z,5.03
2022-11-18T13:03:44.424Z,6.55
2022-11-18T13:06:21.933Z,5.32
2022-11-18T13:08:52.374Z,9.15
2022-11-18T13:11:40.556Z,6.38
2022-11-18T13:14:33.716Z,6.55
2022-11-18T13:17:19.717Z,6.85
2022-11-18T13:19:57.106Z,10.18
2022-11-18T13:22:43.400Z,5.95
2022-11-18T13:25:25.092Z,5.97
2022-11-18T13:27:57.674Z,8.95
2022-11-18T13:30:26.484Z,9.43
2022-11-18T13:32:56.331Z,8.63
2022-11-18T13:35:27.375Z,6.85
2022-11-18T13:37:57.704Z,5.85
2022-11-18T13:40:27.472Z,7.32
2022-11-18T13:42:57.559Z,5.63
2022-11-18T13:45:27.941Z,6.35
2022-11-18T13:47:59.329Z,5.22
2022-11-18T13:50:31.004Z,5.07
2022-11-18T13:53:06.102Z,10.45
2022-11-18T13:55:36.323Z,10.95
2022-11-18T13:58:07.313Z,6.63
2022-11-18T14:00:37.912Z,6.03
2022-11-18T14:03:07.953Z,7.85
2022-11-18T14:05:36.699Z,11.50
2022-11-18T14:08:07.434Z,6.70
2022-11-18T14:10:41.668Z,6.95
2022-11-18T14:13:24.648Z,10.18
2022-11-18T14:15:53.049Z,4.85
2022-11-18T14:18:22.998Z,7.18
2022-11-18T14:20:52.191Z,9.10
2022-11-18T14:23:21.994Z,4.68
2022-11-18T14:25:50.396Z,7.72
2022-11-18T14:28:23.858Z,9.05
2022-11-18T14:31:00.020Z,10.93
2022-11-18T14:33:28.793Z,7.15
2022-11-18T14:35:58.564Z,7.40
2022-11-18T14:41:44.372Z,7.30
2022-11-18T14:44:14.769Z,7.70
2022-11-18T14:46:44.050Z,10.75
2022-11-18T14:49:15.353Z,9.32
2022-11-18T14:51:43.765Z,13.10
2022-11-18T14:54:14.510Z,6.18
2022-11-18T14:56:43.331Z,5.38
2022-11-18T14:59:14.939Z,7.25
2022-11-18T15:01:43.892Z,9.05
2022-11-18T15:04:13.810Z,11.32
2022-11-18T15:06:42.217Z,8.18
2022-11-18T15:09:10.632Z,11.50
2022-11-18T15:11:39.003Z,11.98
2022-11-18T15:14:07.444Z,10.10
2022-11-18T15:16:37.214Z,9.70
2022-11-18T15:19:06.521Z,8.15
2022-11-18T15:21:34.950Z,8.73
2022-11-18T15:24:03.550Z,6.28
2022-11-18T15:26:36.200Z,10.48
2022-11-18T15:29:04.652Z,6.43
2022-11-18T15:31:33.024Z,11.73
2022-11-18T15:34:06.718Z,9.55
2022-11-18T15:36:36.329Z,7.38
2022-11-18T15:39:04.821Z,7.60
2022-11-18T15:41:33.620Z,6.88
2022-11-18T15:44:02.908Z,10.05
2022-11-18T15:46:33.276Z,5.68
2022-11-18T15:49:03.245Z,9.52
2022-11-18T15:51:33.295Z,6.40
2022-11-18T15:54:01.738Z,6.97
2022-11-18T15:56:31.263Z,7.68
2022-11-18T15:59:00.613Z,7.85
2022-11-18T16:01:29.743Z,9.23
2022-11-18T16:03:58.336Z,10.00
2022-11-18T16:06:28.206Z,7.70
2022-11-18T16:09:00.007Z,8.02
2022-11-18T16:11:46.898Z,6.47
2022-11-18T16:14:16.684Z,11.45
2022-11-18T16:16:46.269Z,10.75
2022-11-18T16:19:15.441Z,9.35
2022-11-18T16:21:46.386Z,8.38
2022-11-18T16:24:16.173Z,7.60
2022-11-18T16:26:45.144Z,12.85
2022-11-18T16:29:15.869Z,10.38
2022-11-18T16:31:44.768Z,8.63
2022-11-18T16:34:13.976Z,12.10
2022-11-18T16:36:43.144Z,7.88
2022-11-18T16:39:13.981Z,8.43
2022-11-18T16:41:43.420Z,7.78
2022-11-18T16:44:13.780Z,10.18
2022-11-18T16:46:43.243Z,10.25
2022-11-18T16:49:13.774Z,11.85
2022-11-18T16:51:43.137Z,11.77
2022-11-18T16:54:16.974Z,10.30
2022-11-18T16:56:45.443Z,9.18
2022-11-18T16:59:14.484Z,9.85
2022-11-18T17:01:43.000Z,11.32
2022-11-18T17:04:12.570Z,8.90
2022-11-18T17:06:41.496Z,10.23
2022-11-18T17:09:14.167Z,8.52
2022-11-18T17:11:44.097Z,9.45
2022-11-18T17:14:12.694Z,8.95
2022-11-18T17:16:41.364Z,11.40
2022-11-18T17:19:11.881Z,11.10
2022-11-18T17:21:40.560Z,10.25
2022-11-18T17:24:09.557Z,11.02
2022-11-18T17:26:37.956Z,14.18
2022-11-18T17:29:07.785Z,12.10
2022-11-18T17:31:36.240Z,11.10
2022-11-18T17:34:04.615Z,30.83
2022-11-18T17:36:33.222Z,33.75
2022-11-18T17:39:01.774Z,39.28
2022-11-18T17:41:48.144Z,18.67
2022-11-18T17:44:19.344Z,19.15
2022-11-18T17:46:47.959Z,18.67
2022-11-18T17:49:18.013Z,13.52
2022-11-18T17:51:47.358Z,10.85
2022-11-18T17:54:16.112Z,11.85
2022-11-18T17:56:44.800Z,10.65
2022-11-18T17:59:14.685Z,9.70
2022-11-18T18:01:44.748Z,9.25
2022-11-18T18:04:14.499Z,11.38
2022-11-18T18:06:42.950Z,13.40
2022-11-18T18:09:11.337Z,12.80
2022-11-18T18:11:39.739Z,18.08
2022-11-18T18:14:12.914Z,15.35
2022-11-18T18:16:42.410Z,10.27
2022-11-18T18:19:12.997Z,13.18
2022-11-18T18:21:41.688Z,8.25
2022-11-18T18:24:10.872Z,14.10
2022-11-18T18:26:39.366Z,13.77
2022-11-18T18:29:07.956Z,13.10
2022-11-18T18:31:36.670Z,12.15
2022-11-18T18:34:05.620Z,9.23
2022-11-18T18:36:35.563Z,10.73
2022-11-18T18:39:03.967Z,8.10
2022-11-18T18:41:32.981Z,11.02
2022-11-18T18:44:01.695Z,10.93
2022-11-18T18:46:29.829Z,13.80
2022-11-18T18:48:59.821Z,10.73
2022-11-18T18:51:28.901Z,13.57
2022-11-18T18:53:59.111Z,18.02
2022-11-18T18:56:27.978Z,17.05
2022-11-18T18:58:56.630Z,13.13
2022-11-18T19:01:25.138Z,14.57
2022-11-18T19:03:55.456Z,10.73
2022-11-18T19:09:15.361Z,11.25
2022-11-18T19:12:02.128Z,11.93
2022-11-18T19:14:30.841Z,13.80
2022-11-18T19:17:02.265Z,13.85
2022-11-18T19:19:51.084Z,12.18
2022-11-18T19:22:19.538Z,16.00
2022-11-18T19:24:50.799Z,16.92
2022-11-18T19:27:19.654Z,15.02
2022-11-18T19:29:48.144Z,15.48
2022-11-18T19:32:17.114Z,17.27
2022-11-18T19:34:45.731Z,18.63
2022-11-18T19:37:14.313Z,20.90
2022-11-18T19:39:42.684Z,19.80
2022-11-18T19:42:12.501Z,29.30
2022-11-18T19:44:41.236Z,27.02
2022-11-18T19:47:10.175Z,22.83
2022-11-18T19:49:38.870Z,24.08
2022-11-18T19:52:07.284Z,26.38
2022-11-18T19:54:35.734Z,26.20
2022-11-18T19:57:04.225Z,30.50
2022-11-18T19:59:34.003Z,28.35
2022-11-18T20:02:02.581Z,32.67
2022-11-18T20:04:30.953Z,34.08
2022-11-18T20:06:59.628Z,33.92
2022-11-18T20:09:28.065Z,34.33
2022-11-18T20:11:56.473Z,34.67
2022-11-18T20:14:25.410Z,40.47
2022-11-18T20:16:55.205Z,36.97
2022-11-18T20:19:24.296Z,38.75
2022-11-18T20:21:52.801Z,39.22
2022-11-18T20:24:21.331Z,42.67
2022-11-18T20:26:49.771Z,40.05
2022-11-18T20:29:18.550Z,42.85
2022-11-18T20:31:47.212Z,44.97
2022-11-18T20:34:16.982Z,44.30
2022-11-18T20:36:46.546Z,43.10
2022-11-18T20:39:15.547Z,39.38
2022-11-18T20:42:04.039Z,38.38
2022-11-18T20:44:32.419Z,36.28
2022-11-18T20:47:00.984Z,36.28
2022-11-18T20:49:30.810Z,35.60
2022-11-18T20:51:59.260Z,34.47
2022-11-18T20:54:27.667Z,35.00
2022-11-18T20:56:56.067Z,34.60
2022-11-18T20:59:24.635Z,36.40
2022-11-18T21:01:53.053Z,37.95
2022-11-18T21:04:21.487Z,38.03
2022-11-18T21:06:54.571Z,36.42
2022-11-18T21:09:23.119Z,34.53
2022-11-18T21:11:51.681Z,34.95
2022-11-18T21:14:25.382Z,31.52
2022-11-18T21:16:55.376Z,29.80
2022-11-18T21:19:26.119Z,30.38
2022-11-18T21:21:55.968Z,30.70
2022-11-18T21:24:25.173Z,30.13
2022-11-18T21:26:54.844Z,33.63
2022-11-18T21:29:23.968Z,27.33
2022-11-18T21:31:52.895Z,30.33
2022-11-18T21:34:21.734Z,26.33
2022-11-18T21:36:54.294Z,27.20
2022-11-18T21:39:25.210Z,25.33
2022-11-18T21:41:56.732Z,22.98
2022-11-18T21:44:27.973Z,26.27
2022-11-18T21:46:57.230Z,25.60
2022-11-18T21:49:25.618Z,26.27
2022-11-18T21:51:54.250Z,21.85
2022-11-18T21:54:22.626Z,23.17
2022-11-18T21:56:53.708Z,21.85
2022-11-18T21:59:22.801Z,21.20
2022-11-18T22:01:51.228Z,22.00
2022-11-18T22:04:33.589Z,17.80
2022-11-18T22:07:02.111Z,20.52
2022-11-18T22:09:36.057Z,17.55
2022-11-18T22:12:07.775Z,15.38
2022-11-18T22:14:36.298Z,17.83
2022-11-18T22:17:04.927Z,16.58
2022-11-18T22:19:33.324Z,15.85
2022-11-18T22:22:01.732Z,16.55
2022-11-18T22:24:30.133Z,16.08
2022-11-18T22:26:59.068Z,15.40
2022-11-18T22:29:28.907Z,13.70
2022-11-18T22:31:57.324Z,13.40
2022-11-18T22:34:26.840Z,13.52
2022-11-18T22:36:55.285Z,13.18
2022-11-18T22:39:23.681Z,12.10
2022-11-18T22:42:09.893Z,11.85
2022-11-18T22:44:39.623Z,12.27
2022-11-18T22:47:08.093Z,15.13
2022-11-18T22:49:36.496Z,11.43
2022-11-18T22:52:04.957Z,10.90
2022-11-18T22:54:40.703Z,10.02
2022-11-18T22:57:09.272Z,10.32
2022-11-18T22:59:37.692Z,10.65
2022-11-18T23:02:07.859Z,9.80
2022-11-18T23:04:36.251Z,10.75
2022-11-18T23:07:04.729Z,9.50
2022-11-18T23:09:33.192Z,8.50
2022-11-18T23:12:19.052Z,9.05
2022-11-18T23:14:47.502Z,10.48
2022-11-18T23:17:17.427Z,10.35
2022-11-18T23:19:46.968Z,10.90
2022-11-18T23:22:15.772Z,11.38
2022-11-18T23:24:44.118Z,11.93
2022-11-18T23:27:12.530Z,8.85
2022-11-18T23:29:40.860Z,9.52
2022-11-18T23:32:09.306Z,9.35
2022-11-18T23:34:39.013Z,9.10
2022-11-18T23:37:07.422Z,10.35
2022-11-18T23:39:37.272Z,12.07
2022-11-18T23:42:06.000Z,9.18
2022-11-18T23:44:46.337Z,9.88
2022-11-18T23:47:14.841Z,9.00
2022-11-18T23:49:44.606Z,9.80
2022-11-18T23:52:13.104Z,9.45
2022-11-18T23:54:41.461Z,11.05
2022-11-18T23:57:09.917Z,8.60
2022-11-18T23:59:38.255Z,9.80
